Terminal Aerodrome Forecast
Issued by NWS Cleveland, OH

Home | Current Version | Previous Version | Text Only | Print | Product List | Glossary On
Versions: 1 2 3 4 5 6 7 8 9 10 11 12 13 14 15 16 17 18 19
000
FTUS41 KCLE 272300
TAFERI
TAF
KERI 272326Z 2800/2824 30012G18KT P6SM -SHSN SCT025 OVC045
      TEMPO 2800/2804 4SM -SHSN OVC025
     FM280400 32012G18KT 5SM -SHSN SCT020 OVC035
      TEMPO 2804/2808 2SM -SHSN OVC025
     FM280800 29010KT P6SM SCT025 OVC045
      TEMPO 2808/2812 5SM -SHSN OVC025
     FM281500 24010KT P6SM BKN045 OVC080=

USA.gov is the U.S. government's official web portal to all federal, state and local government web resources and services.